createdAt,value
2022-10-31T00:01:18.939Z,98840.16
2022-10-31T00:03:25.144Z,98844.63
2022-10-31T00:05:29.986Z,98848.22
2022-10-31T00:07:34.746Z,98843.28
2022-10-31T00:09:42.096Z,98828.72
2022-10-31T00:11:46.854Z,98832.47
2022-10-31T00:13:51.696Z,98829.00
2022-10-31T00:15:56.413Z,98835.91
2022-10-31T00:18:02.637Z,98835.16
2022-10-31T00:20:08.412Z,98830.81
2022-10-31T00:22:13.138Z,98827.38
2022-10-31T00:24:18.053Z,98830.78
2022-10-31T00:26:27.688Z,98835.91
2022-10-31T00:28:33.580Z,98833.31
2022-10-31T00:30:38.393Z,98826.56
2022-10-31T00:32:43.298Z,98825.03
2022-10-31T00:34:48.021Z,98822.75
2022-10-31T00:36:52.812Z,98824.91
2022-10-31T00:38:57.838Z,98824.31
2022-10-31T00:41:02.955Z,98820.16
2022-10-31T00:45:15.551Z,98836.19
2022-10-31T00:47:19.996Z,98828.59
2022-10-31T00:49:25.130Z,98837.28
2022-10-31T00:51:29.939Z,98826.84
2022-10-31T00:53:36.066Z,98824.31
2022-10-31T00:55:40.999Z,98821.75
2022-10-31T00:57:46.060Z,98825.34
2022-10-31T00:59:53.367Z,98832.34
2022-10-31T01:01:58.298Z,98829.88
2022-10-31T01:04:04.152Z,98831.63
2022-10-31T01:06:13.448Z,98827.19
2022-10-31T01:08:18.314Z,98817.63
2022-10-31T01:10:23.220Z,98821.03
2022-10-31T01:12:29.839Z,98818.38
2022-10-31T01:14:35.566Z,98821.75
2022-10-31T01:16:42.935Z,98820.75
2022-10-31T01:18:48.016Z,98822.44
2022-10-31T01:21:01.138Z,98819.78
2022-10-31T01:23:05.975Z,98829.53
2022-10-31T01:25:13.182Z,98829.72
2022-10-31T01:27:18.107Z,98827.63
2022-10-31T01:29:27.347Z,98827.69
2022-10-31T01:31:33.857Z,98816.47
2022-10-31T01:33:41.821Z,98825.94
2022-10-31T01:35:46.811Z,98828.50
2022-10-31T01:37:51.582Z,98826.69
2022-10-31T01:39:56.319Z,98828.50
2022-10-31T01:42:01.324Z,98835.41
2022-10-31T01:44:42.309Z,98837.84
2022-10-31T01:46:55.431Z,98829.06
2022-10-31T01:49:02.838Z,98829.16
2022-10-31T01:51:08.594Z,98828.50
2022-10-31T01:53:15.550Z,98821.75
2022-10-31T01:55:27.757Z,98815.00
2022-10-31T01:57:35.706Z,98818.69
2022-10-31T01:59:45.929Z,98826.44
2022-10-31T02:01:55.525Z,98821.09
2022-10-31T02:04:00.476Z,98815.81
2022-10-31T02:06:10.146Z,98823.56
2022-10-31T02:08:20.564Z,98832.19
2022-10-31T02:10:28.891Z,98831.31
2022-10-31T02:12:35.822Z,98825.19
2022-10-31T02:14:41.682Z,98822.72
2022-10-31T02:16:46.456Z,98819.22
2022-10-31T02:18:53.835Z,98820.91
2022-10-31T02:21:15.011Z,98813.97
2022-10-31T02:23:58.056Z,98812.25
2022-10-31T02:26:43.352Z,98810.84
2022-10-31T02:29:09.350Z,98808.50
2022-10-31T02:31:28.404Z,98800.94
2022-10-31T02:33:40.035Z,98799.59
2022-10-31T02:35:58.017Z,98805.69
2022-10-31T02:38:08.321Z,98807.41
2022-10-31T02:40:21.240Z,98801.25
2022-10-31T02:42:54.139Z,98804.78
2022-10-31T02:45:05.361Z,98808.25
2022-10-31T02:47:17.578Z,98801.28
2022-10-31T02:49:30.629Z,98799.56
2022-10-31T02:51:35.533Z,98799.59
2022-10-31T02:53:43.787Z,98800.41
2022-10-31T02:55:58.724Z,98804.56
2022-10-31T02:58:08.773Z,98807.13
2022-10-31T03:00:14.702Z,98802.75
2022-10-31T03:02:31.717Z,98802.63
2022-10-31T03:05:03.504Z,98796.59
2022-10-31T03:07:17.917Z,98800.00
2022-10-31T03:09:29.155Z,98806.16
2022-10-31T03:11:43.899Z,98804.44
2022-10-31T03:13:52.617Z,98805.38
2022-10-31T03:16:03.078Z,98802.81
2022-10-31T03:18:16.216Z,98804.66
2022-10-31T03:20:25.820Z,98811.66
2022-10-31T03:22:34.106Z,98809.03
2022-10-31T03:24:42.956Z,98813.53
2022-10-31T03:26:51.487Z,98806.78
2022-10-31T03:29:01.038Z,98808.63
2022-10-31T03:31:08.486Z,98809.66
2022-10-31T03:33:24.555Z,98808.81
2022-10-31T03:35:32.773Z,98808.78
2022-10-31T03:37:40.207Z,98803.59
2022-10-31T03:39:51.847Z,98812.53
2022-10-31T03:42:03.724Z,98813.50
2022-10-31T03:44:15.863Z,98811.16
2022-10-31T03:46:21.423Z,98824.28
2022-10-31T03:48:31.315Z,98816.75
2022-10-31T03:50:45.469Z,98831.59
2022-10-31T03:52:53.701Z,98821.53
2022-10-31T03:55:01.856Z,98825.09
2022-10-31T03:57:17.311Z,98819.09
2022-10-31T03:59:28.583Z,98824.25
2022-10-31T04:01:38.130Z,98815.50
2022-10-31T04:03:47.493Z,98817.19
2022-10-31T04:05:57.294Z,98818.00
2022-10-31T04:08:07.066Z,98816.22
2022-10-31T04:10:16.052Z,98817.16
2022-10-31T04:12:22.964Z,98813.59
2022-10-31T04:14:45.147Z,98813.69
2022-10-31T04:16:50.248Z,98813.69
2022-10-31T04:18:57.839Z,98813.69
2022-10-31T04:21:07.915Z,98817.19
2022-10-31T04:23:22.179Z,98808.47
2022-10-31T04:25:27.825Z,98817.19
2022-10-31T04:27:33.156Z,98807.53
2022-10-31T04:29:37.958Z,98806.75
2022-10-31T04:31:42.707Z,98811.97
2022-10-31T04:33:48.098Z,98812.09
2022-10-31T04:35:55.662Z,98807.91
2022-10-31T04:38:00.467Z,98807.25
2022-10-31T04:40:05.341Z,98805.81
2022-10-31T04:42:19.506Z,98809.44
2022-10-31T04:44:24.532Z,98811.28
2022-10-31T04:46:31.407Z,98807.88
2022-10-31T04:48:37.118Z,98805.25
2022-10-31T04:50:44.545Z,98805.19
2022-10-31T04:52:54.300Z,98799.06
2022-10-31T04:55:04.291Z,98801.59
2022-10-31T04:57:34.938Z,98800.84
2022-10-31T04:59:40.588Z,98798.16
2022-10-31T05:01:46.759Z,98802.44
2022-10-31T05:03:51.536Z,98793.06
2022-10-31T05:05:56.335Z,98795.72
2022-10-31T05:08:03.861Z,98797.47
2022-10-31T05:10:11.058Z,98794.94
2022-10-31T05:12:16.462Z,98796.63
2022-10-31T05:14:41.463Z,98791.38
2022-10-31T05:17:26.325Z,98793.34
2022-10-31T05:19:56.778Z,98797.25
2022-10-31T05:22:20.112Z,98795.94
2022-10-31T05:24:27.464Z,98795.38
2022-10-31T05:26:32.417Z,98800.88
2022-10-31T05:28:38.578Z,98800.09
2022-10-31T05:30:43.741Z,98807.97
2022-10-31T05:32:53.946Z,98808.06
2022-10-31T05:35:21.251Z,98799.34
2022-10-31T05:37:48.763Z,98804.44
2022-10-31T05:39:56.106Z,98794.00
2022-10-31T05:42:01.419Z,98806.03
2022-10-31T05:44:06.260Z,98806.72
2022-10-31T05:46:18.363Z,98804.00
2022-10-31T05:48:52.460Z,98810.16
2022-10-31T05:51:16.613Z,98807.69
2022-10-31T05:53:21.754Z,98815.56
2022-10-31T05:55:29.575Z,98811.19
2022-10-31T05:57:42.716Z,98803.47
2022-10-31T05:59:52.349Z,98806.09
2022-10-31T06:02:00.751Z,98806.09
2022-10-31T06:04:27.968Z,98806.19
2022-10-31T06:06:32.844Z,98802.69
2022-10-31T06:08:37.697Z,98806.19
2022-10-31T06:10:48.702Z,98804.44
2022-10-31T06:12:58.532Z,98802.69
2022-10-31T06:15:17.710Z,98800.94
2022-10-31T06:17:25.623Z,98800.09
2022-10-31T06:21:59.328Z,98804.28
2022-10-31T06:24:04.151Z,98804.22
2022-10-31T06:26:43.625Z,98800.59
2022-10-31T06:28:48.582Z,98799.50
2022-10-31T06:31:09.119Z,98800.22
2022-10-31T06:33:14.488Z,98801.06
2022-10-31T06:35:26.352Z,98802.09
2022-10-31T06:37:31.510Z,98800.41
2022-10-31T06:39:42.864Z,98801.50
2022-10-31T06:41:53.608Z,98811.06
2022-10-31T06:44:03.549Z,98808.66
2022-10-31T06:46:30.138Z,98806.09
2022-10-31T06:48:53.524Z,98809.13
2022-10-31T06:51:07.482Z,98813.38
2022-10-31T06:53:12.729Z,98813.97
2022-10-31T06:55:18.053Z,98818.88
2022-10-31T06:57:26.975Z,98813.47
2022-10-31T06:59:32.656Z,98802.91
2022-10-31T07:01:40.050Z,98808.88
2022-10-31T07:03:48.486Z,98803.75
2022-10-31T07:05:53.406Z,98805.47
2022-10-31T07:07:58.897Z,98808.03
2022-10-31T07:10:04.027Z,98811.50
2022-10-31T07:12:21.749Z,98813.91
2022-10-31T07:14:36.776Z,98816.34
2022-10-31T07:16:41.655Z,98815.31
2022-10-31T07:18:46.649Z,98818.69
2022-10-31T07:20:52.322Z,98816.00
2022-10-31T07:22:57.502Z,98817.72
2022-10-31T07:25:03.107Z,98824.66
2022-10-31T07:27:27.800Z,98820.19
2022-10-31T07:29:32.652Z,98822.72
2022-10-31T07:31:40.053Z,98820.13
2022-10-31T07:33:53.830Z,98820.97
2022-10-31T07:36:07.743Z,98825.22
2022-10-31T07:38:14.435Z,98819.88
2022-10-31T07:40:20.662Z,98822.31
2022-10-31T07:42:25.539Z,98822.25
2022-10-31T07:44:30.365Z,98820.31
2022-10-31T07:46:56.198Z,98822.66
2022-10-31T07:49:26.960Z,98820.06
2022-10-31T07:51:50.465Z,98819.09
2022-10-31T07:54:13.844Z,98819.88
2022-10-31T07:56:18.713Z,98820.66
2022-10-31T07:58:23.516Z,98817.94
2022-10-31T08:00:29.680Z,98824.78
2022-10-31T08:02:37.470Z,98818.66
2022-10-31T08:05:09.339Z,98820.56
2022-10-31T08:07:46.031Z,98816.09
2022-10-31T08:09:56.595Z,98821.06
2022-10-31T08:12:05.183Z,98819.19
2022-10-31T08:14:11.982Z,98815.59
2022-10-31T08:16:16.912Z,98806.78
2022-10-31T08:18:33.520Z,98816.97
2022-10-31T08:20:38.479Z,98818.59
2022-10-31T08:22:44.026Z,98818.59
2022-10-31T08:24:49.561Z,98820.50
2022-10-31T08:26:56.335Z,98813.25
2022-10-31T08:29:01.075Z,98811.38
2022-10-31T08:31:11.123Z,98811.97
2022-10-31T08:33:21.323Z,98813.91
2022-10-31T08:35:48.606Z,98810.84
2022-10-31T08:38:16.996Z,98808.69
2022-10-31T08:40:22.021Z,98811.84
2022-10-31T08:42:31.403Z,98816.59
2022-10-31T08:44:36.772Z,98814.75
2022-10-31T08:46:42.921Z,98807.44
2022-10-31T08:48:47.646Z,98805.63
2022-10-31T08:50:55.104Z,98802.53
2022-10-31T08:53:06.093Z,98798.56
2022-10-31T08:55:12.824Z,98793.75
2022-10-31T08:57:36.227Z,98794.13
2022-10-31T08:59:41.392Z,98790.38
2022-10-31T09:01:59.531Z,98786.34
2022-10-31T09:04:04.407Z,98783.66
2022-10-31T09:06:12.049Z,98789.38
2022-10-31T09:08:17.745Z,98781.09
2022-10-31T09:10:24.906Z,98780.81
2022-10-31T09:12:30.123Z,98782.22
2022-10-31T09:14:53.620Z,98782.56
2022-10-31T09:17:09.550Z,98779.78
2022-10-31T09:19:40.189Z,98778.56
2022-10-31T09:21:49.369Z,98778.03
2022-10-31T09:23:54.933Z,98774.81
2022-10-31T09:25:59.750Z,98776.94
2022-10-31T09:28:16.812Z,98771.91
2022-10-31T09:30:23.500Z,98774.00
2022-10-31T09:32:31.157Z,98763.69
2022-10-31T09:34:36.036Z,98768.44
2022-10-31T09:36:48.112Z,98762.50
2022-10-31T09:39:00.246Z,98763.94
2022-10-31T09:41:11.597Z,98760.75
2022-10-31T09:43:23.781Z,98759.41
2022-10-31T09:45:35.120Z,98755.38
2022-10-31T09:47:58.347Z,98755.66
2022-10-31T09:50:21.578Z,98748.06
2022-10-31T09:52:33.659Z,98745.00
2022-10-31T09:54:48.717Z,98741.38
2022-10-31T09:56:53.717Z,98745.28
2022-10-31T09:59:01.911Z,98728.84
2022-10-31T10:01:08.765Z,98733.06
2022-10-31T10:03:19.712Z,98734.44
2022-10-31T10:05:31.929Z,98727.94
2022-10-31T10:07:57.533Z,98713.41
2022-10-31T10:10:52.280Z,98714.09
2022-10-31T10:13:55.803Z,98707.50
2022-10-31T10:16:10.920Z,98703.63
2022-10-31T10:18:29.423Z,98711.13
2022-10-31T10:20:42.659Z,98697.16
2022-10-31T10:22:53.466Z,98699.28
2022-10-31T10:25:08.499Z,98694.88
2022-10-31T10:27:26.465Z,98694.41
2022-10-31T10:29:39.663Z,98696.09
2022-10-31T10:31:48.213Z,98696.59
2022-10-31T10:34:03.642Z,98689.34
2022-10-31T10:36:14.179Z,98696.00
2022-10-31T10:38:26.458Z,98692.34
2022-10-31T10:40:32.633Z,98684.91
2022-10-31T10:42:53.147Z,98681.81
2022-10-31T10:45:10.315Z,98679.91
2022-10-31T10:47:28.063Z,98681.94
2022-10-31T10:49:40.288Z,98678.28
2022-10-31T10:52:02.207Z,98676.97
2022-10-31T10:54:39.247Z,98669.06
2022-10-31T10:56:55.236Z,98668.13
2022-10-31T10:59:02.622Z,98663.81
2022-10-31T11:03:22.708Z,98651.75
2022-10-31T11:05:32.519Z,98651.84
2022-10-31T11:07:43.934Z,98644.19
2022-10-31T11:09:48.777Z,98640.25
2022-10-31T11:11:53.610Z,98641.72
2022-10-31T11:14:05.621Z,98640.69
2022-10-31T11:16:13.480Z,98639.31
2022-10-31T11:20:35.773Z,98627.31
2022-10-31T11:22:43.519Z,98625.63
2022-10-31T11:24:48.357Z,98634.50
2022-10-31T11:26:54.923Z,98622.25
2022-10-31T11:29:06.621Z,98626.47
2022-10-31T11:31:15.757Z,98616.16
2022-10-31T11:33:25.622Z,98608.72
2022-10-31T11:35:31.211Z,98605.75
2022-10-31T11:37:38.871Z,98609.56
2022-10-31T11:39:54.186Z,98605.31
2022-10-31T11:42:08.798Z,98607.38
2022-10-31T11:44:21.101Z,98601.13
2022-10-31T11:46:32.466Z,98589.19
2022-10-31T11:48:37.442Z,98591.53
2022-10-31T11:50:51.108Z,98586.78
2022-10-31T11:52:58.017Z,98587.75
2022-10-31T11:55:05.057Z,98587.75
2022-10-31T11:57:26.455Z,98583.72
2022-10-31T11:59:35.474Z,98573.41
2022-10-31T12:01:45.155Z,98572.00
2022-10-31T12:03:58.699Z,98568.88
2022-10-31T12:06:07.469Z,98564.81
2022-10-31T12:08:15.451Z,98568.00
2022-10-31T12:10:25.112Z,98569.25
2022-10-31T12:12:45.350Z,98567.03
2022-10-31T12:15:04.300Z,98564.91
2022-10-31T12:17:16.494Z,98556.56
2022-10-31T12:19:34.315Z,98556.25
2022-10-31T12:21:59.436Z,98548.19
2022-10-31T12:24:20.462Z,98552.63
2022-10-31T12:26:30.188Z,98551.94
2022-10-31T12:29:00.578Z,98547.13
2022-10-31T12:31:21.605Z,98538.16
2022-10-31T12:33:46.351Z,98534.47
2022-10-31T12:36:01.603Z,98531.81
2022-10-31T12:38:21.910Z,98535.94
2022-10-31T12:40:45.550Z,98538.44
2022-10-31T12:43:05.726Z,98531.31
2022-10-31T12:45:33.806Z,98532.44
2022-10-31T12:48:03.920Z,98534.63
2022-10-31T12:50:23.877Z,98528.28
2022-10-31T12:52:46.872Z,98524.34
2022-10-31T12:55:04.911Z,98520.53
2022-10-31T12:57:20.891Z,98527.59
2022-10-31T12:59:33.772Z,98522.78
2022-10-31T13:01:42.801Z,98519.81
2022-10-31T13:03:59.788Z,98508.41
2022-10-31T13:06:10.248Z,98506.84
2022-10-31T13:08:18.335Z,98518.38
2022-10-31T13:10:28.398Z,98508.00
2022-10-31T13:12:37.540Z,98508.13
2022-10-31T13:14:46.727Z,98500.31
2022-10-31T13:16:53.051Z,98501.00
2022-10-31T13:19:05.668Z,98503.41
2022-10-31T13:21:15.450Z,98497.19
2022-10-31T13:23:49.172Z,98498.34
2022-10-31T13:25:57.342Z,98495.22
2022-10-31T13:28:06.490Z,98482.13
2022-10-31T13:30:18.591Z,98493.97
2022-10-31T13:32:23.543Z,98492.22
2022-10-31T13:34:33.521Z,98496.47
2022-10-31T13:36:44.176Z,98489.22
2022-10-31T13:38:56.578Z,98488.84
2022-10-31T13:41:05.556Z,98492.22
2022-10-31T13:43:18.407Z,98485.06
2022-10-31T13:45:26.078Z,98479.03
2022-10-31T13:47:32.717Z,98480.09
2022-10-31T13:49:44.079Z,98484.53
2022-10-31T13:51:49.865Z,98478.31
2022-10-31T13:54:02.906Z,98479.78
2022-10-31T13:56:19.233Z,98475.13
2022-10-31T13:58:28.005Z,98475.44
2022-10-31T14:00:35.901Z,98469.25
2022-10-31T14:02:50.599Z,98474.66
2022-10-31T14:05:01.702Z,98459.09
2022-10-31T14:07:12.074Z,98467.75
2022-10-31T14:09:26.044Z,98466.59
2022-10-31T14:11:36.085Z,98461.31
2022-10-31T14:13:47.756Z,98457.72
2022-10-31T14:15:59.347Z,98455.81
2022-10-31T14:18:07.587Z,98452.44
2022-10-31T14:20:39.844Z,98447.09
2022-10-31T14:22:45.481Z,98452.69
2022-10-31T14:24:50.350Z,98446.59
2022-10-31T14:26:56.903Z,98450.81
2022-10-31T14:29:03.710Z,98446.25
2022-10-31T14:31:37.946Z,98442.56
2022-10-31T14:33:46.760Z,98437.28
2022-10-31T14:36:01.730Z,98439.94
2022-10-31T14:38:22.413Z,98441.22
2022-10-31T14:40:33.559Z,98432.47
2022-10-31T14:42:58.806Z,98426.44
2022-10-31T14:45:17.538Z,98425.81
2022-10-31T14:47:31.281Z,98423.28
2022-10-31T14:49:53.249Z,98418.97
2022-10-31T14:52:00.851Z,98416.88
2022-10-31T14:54:08.332Z,98417.00
2022-10-31T14:56:15.212Z,98415.63
2022-10-31T14:58:25.024Z,98410.59
2022-10-31T15:00:32.889Z,98409.94
2022-10-31T15:02:45.709Z,98409.22
2022-10-31T15:04:52.405Z,98404.91
2022-10-31T15:07:03.326Z,98409.69
2022-10-31T15:09:08.269Z,98409.91
2022-10-31T15:11:17.502Z,98414.66
2022-10-31T15:13:24.806Z,98400.72
2022-10-31T15:15:31.718Z,98403.59
2022-10-31T15:17:36.583Z,98399.38
2022-10-31T15:19:42.119Z,98400.56
2022-10-31T15:21:48.709Z,98405.69
2022-10-31T15:23:58.796Z,98404.78
2022-10-31T15:26:04.731Z,98403.91
2022-10-31T15:28:17.867Z,98399.59
2022-10-31T15:30:25.443Z,98396.34
2022-10-31T15:32:32.611Z,98401.69
2022-10-31T15:34:43.183Z,98402.03
2022-10-31T15:36:51.884Z,98400.34
2022-10-31T15:39:00.229Z,98396.34
2022-10-31T15:41:08.865Z,98393.31
2022-10-31T15:43:19.731Z,98397.00
2022-10-31T15:45:28.560Z,98411.22
2022-10-31T15:47:37.737Z,98404.78
2022-10-31T15:49:45.612Z,98417.53
2022-10-31T15:51:54.255Z,98408.78
2022-10-31T15:54:03.718Z,98410.03
2022-10-31T15:56:12.485Z,98408.78
2022-10-31T15:58:20.023Z,98408.88
2022-10-31T16:00:32.371Z,98409.84
2022-10-31T16:02:37.328Z,98399.63
2022-10-31T16:04:51.209Z,98406.25
2022-10-31T16:07:20.215Z,98410.97
2022-10-31T16:09:30.604Z,98419.19
2022-10-31T16:11:39.434Z,98426.34
2022-10-31T16:13:56.504Z,98424.84
2022-10-31T16:16:33.079Z,98410.03
2022-10-31T16:18:38.479Z,98414.25
2022-10-31T16:20:43.384Z,98421.59
2022-10-31T16:22:53.749Z,98426.78
2022-10-31T16:25:07.055Z,98429.47
2022-10-31T16:27:35.571Z,98433.56
2022-10-31T16:29:46.727Z,98441.66
2022-10-31T16:31:51.620Z,98449.13
2022-10-31T16:34:05.942Z,98455.00
2022-10-31T16:36:35.670Z,98455.56
2022-10-31T16:38:41.787Z,98457.56
2022-10-31T16:40:49.508Z,98453.13
2022-10-31T16:42:54.915Z,98447.03
2022-10-31T16:44:59.670Z,98443.56
2022-10-31T16:47:17.513Z,98454.19
2022-10-31T16:49:22.240Z,98444.81
2022-10-31T16:51:27.129Z,98439.63
2022-10-31T16:53:32.407Z,98443.34
2022-10-31T16:55:37.306Z,98447.00
2022-10-31T16:57:47.317Z,98460.50
2022-10-31T16:59:56.771Z,98462.47
2022-10-31T17:02:03.564Z,98455.81
2022-10-31T17:04:08.810Z,98461.38
2022-10-31T17:06:17.674Z,98460.19
2022-10-31T17:08:22.745Z,98456.97
2022-10-31T17:10:28.691Z,98457.94
2022-10-31T17:12:33.857Z,98471.16
2022-10-31T17:14:43.430Z,98470.69
2022-10-31T17:17:04.610Z,98470.25
2022-10-31T17:19:11.679Z,98466.88
2022-10-31T17:21:23.220Z,98452.13
2022-10-31T17:23:33.189Z,98452.88
2022-10-31T17:25:38.820Z,98445.00
2022-10-31T17:27:47.365Z,98449.22
2022-10-31T17:29:55.385Z,98448.28
2022-10-31T17:32:01.835Z,98448.19
2022-10-31T17:34:06.881Z,98455.13
2022-10-31T17:36:11.696Z,98454.56
2022-10-31T17:38:16.846Z,98451.09
2022-10-31T17:40:22.715Z,98453.28
2022-10-31T17:42:27.513Z,98437.59
2022-10-31T17:44:33.527Z,98440.13
2022-10-31T17:46:43.641Z,98439.28
2022-10-31T17:48:48.596Z,98443.03
2022-10-31T17:50:53.290Z,98440.78
2022-10-31T17:52:58.336Z,98436.56
2022-10-31T17:55:04.016Z,98440.97
2022-10-31T17:57:08.867Z,98439.31
2022-10-31T17:59:13.687Z,98441.38
2022-10-31T18:01:20.664Z,98431.13
2022-10-31T18:03:28.845Z,98442.66
2022-10-31T18:05:33.841Z,98441.06
2022-10-31T18:07:38.911Z,98438.53
2022-10-31T18:09:43.766Z,98438.72
2022-10-31T18:11:48.729Z,98440.78
2022-10-31T18:13:58.105Z,98441.91
2022-10-31T18:16:02.978Z,98450.88
2022-10-31T18:18:08.414Z,98449.38
2022-10-31T18:20:15.897Z,98447.13
2022-10-31T18:22:20.687Z,98451.69
2022-10-31T18:24:28.524Z,98453.56
2022-10-31T18:26:33.260Z,98456.56
2022-10-31T18:28:39.402Z,98456.63
2022-10-31T18:30:44.607Z,98451.50
2022-10-31T18:32:51.952Z,98441.34
2022-10-31T18:34:56.735Z,98442.28
2022-10-31T18:37:04.075Z,98435.16
2022-10-31T18:39:08.990Z,98436.84
2022-10-31T18:41:14.732Z,98443.97
2022-10-31T18:43:19.472Z,98437.38
2022-10-31T18:45:46.669Z,98440.97
2022-10-31T18:47:53.716Z,98434.94
2022-10-31T18:49:58.531Z,98432.44
2022-10-31T18:52:05.885Z,98427.06
2022-10-31T18:54:12.226Z,98425.47
2022-10-31T18:56:17.059Z,98417.59
2022-10-31T18:58:21.855Z,98422.00
2022-10-31T19:00:26.599Z,98422.19
2022-10-31T19:02:31.528Z,98414.41
2022-10-31T19:04:36.295Z,98413.66
2022-10-31T19:06:42.286Z,98411.13
2022-10-31T19:08:49.628Z,98410.38
2022-10-31T19:10:54.474Z,98424.69
2022-10-31T19:12:59.486Z,98421.56
2022-10-31T19:15:04.218Z,98422.09
2022-10-31T19:17:09.101Z,98418.81
2022-10-31T19:19:13.880Z,98413.63
2022-10-31T19:21:20.490Z,98407.66
2022-10-31T19:23:25.549Z,98410.47
2022-10-31T19:25:32.987Z,98404.53
2022-10-31T19:27:37.877Z,98402.19
2022-10-31T19:29:43.110Z,98397.13
2022-10-31T19:31:48.265Z,98401.94
2022-10-31T19:33:53.618Z,98398.56
2022-10-31T19:36:02.807Z,98397.66
2022-10-31T19:38:07.654Z,98395.94
2022-10-31T19:40:14.124Z,98392.47
2022-10-31T19:42:21.503Z,98389.78
2022-10-31T19:44:26.387Z,98395.75
2022-10-31T19:46:52.851Z,98394.75
2022-10-31T19:48:56.050Z,98395.59
2022-10-31T19:51:04.481Z,98390.34
2022-10-31T19:53:09.614Z,98389.63
2022-10-31T19:55:14.107Z,98384.72
2022-10-31T19:57:30.837Z,98385.63
2022-10-31T19:59:46.271Z,98391.81
2022-10-31T20:01:51.103Z,98390.88
2022-10-31T20:03:55.892Z,98384.88
2022-10-31T20:06:00.941Z,98380.66
2022-10-31T20:08:05.971Z,98378.97
2022-10-31T20:10:11.865Z,98375.50
2022-10-31T20:12:16.607Z,98377.19
2022-10-31T20:14:23.943Z,98375.50
2022-10-31T20:16:30.377Z,98375.50
2022-10-31T20:18:35.895Z,98373.81
2022-10-31T20:20:40.883Z,98362.53
2022-10-31T20:22:49.845Z,98365.25
2022-10-31T20:24:54.615Z,98361.03
2022-10-31T20:26:59.476Z,98352.31
2022-10-31T20:29:05.169Z,98358.50
2022-10-31T20:31:15.553Z,98356.88
2022-10-31T20:33:20.414Z,98356.06
2022-10-31T20:35:26.314Z,98351.75
2022-10-31T20:37:31.093Z,98356.16
2022-10-31T20:39:36.856Z,98352.66
2022-10-31T20:41:41.799Z,98358.91
2022-10-31T20:43:49.658Z,98359.84
2022-10-31T20:45:54.411Z,98361.03
2022-10-31T20:48:02.511Z,98365.59
2022-10-31T20:50:08.636Z,98364.00
2022-10-31T20:52:13.463Z,98372.78
2022-10-31T20:54:20.036Z,98373.03
2022-10-31T20:56:26.873Z,98367.03
2022-10-31T20:58:31.656Z,98368.13
2022-10-31T21:00:36.876Z,98373.44
2022-10-31T21:02:43.267Z,98373.53
2022-10-31T21:04:50.707Z,98371.88
2022-10-31T21:06:55.539Z,98364.19
2022-10-31T21:09:00.961Z,98362.56
2022-10-31T21:11:11.988Z,98367.97
2022-10-31T21:13:16.977Z,98365.44
2022-10-31T21:15:21.736Z,98363.75
2022-10-31T21:17:26.490Z,98363.66
2022-10-31T21:19:31.258Z,98366.38
2022-10-31T21:21:39.882Z,98364.66
2022-10-31T21:23:45.838Z,98362.97
2022-10-31T21:25:50.807Z,98368.44
2022-10-31T21:27:55.640Z,98364.09
2022-10-31T21:30:01.020Z,98360.59
2022-10-31T21:32:05.928Z,98358.06
2022-10-31T21:34:11.565Z,98353.94
2022-10-31T21:36:17.128Z,98349.72
2022-10-31T21:38:24.649Z,98344.56
2022-10-31T21:40:30.082Z,98336.69
2022-10-31T21:42:34.912Z,98329.97
2022-10-31T21:44:39.680Z,98330.03
2022-10-31T21:46:45.047Z,98328.19
2022-10-31T21:48:51.010Z,98321.28
2022-10-31T21:50:55.805Z,98329.19
2022-10-31T21:53:22.394Z,98326.34
2022-10-31T21:55:27.216Z,98321.84
2022-10-31T21:57:31.975Z,98316.44
2022-10-31T21:59:36.768Z,98301.63
2022-10-31T22:01:41.699Z,98302.69
2022-10-31T22:03:46.645Z,98312.16
2022-10-31T22:05:51.404Z,98306.84
2022-10-31T22:07:56.559Z,98302.44
2022-10-31T22:10:01.123Z,98299.84
2022-10-31T22:12:09.886Z,98304.28
2022-10-31T22:14:16.603Z,98299.72
2022-10-31T22:16:26.929Z,98307.34
2022-10-31T22:18:31.990Z,98316.69
2022-10-31T22:20:36.785Z,98320.25
2022-10-31T22:22:41.550Z,98319.81
2022-10-31T22:24:49.245Z,98320.94
2022-10-31T22:26:54.024Z,98318.06
2022-10-31T22:29:02.409Z,98300.50
2022-10-31T22:31:07.870Z,98296.88
2022-10-31T22:33:12.661Z,98302.78
2022-10-31T22:35:17.733Z,98322.88
2022-10-31T22:37:22.521Z,98329.47
2022-10-31T22:39:27.285Z,98326.25
2022-10-31T22:41:34.476Z,98322.63
2022-10-31T22:43:39.631Z,98325.06
2022-10-31T22:45:55.999Z,98338.38
2022-10-31T22:48:00.988Z,98337.63
2022-10-31T22:50:06.194Z,98346.41
2022-10-31T22:52:11.469Z,98353.66
2022-10-31T22:54:18.313Z,98345.06
2022-10-31T22:56:24.429Z,98358.19
2022-10-31T22:58:29.214Z,98353.84
2022-10-31T23:00:34.076Z,98347.06
2022-10-31T23:02:41.696Z,98357.69
2022-10-31T23:04:46.487Z,98352.56
2022-10-31T23:06:51.872Z,98348.22
2022-10-31T23:08:57.101Z,98351.84
2022-10-31T23:11:01.924Z,98358.84
2022-10-31T23:13:19.204Z,98362.31
2022-10-31T23:15:23.987Z,98361.56
2022-10-31T23:17:28.965Z,98351.00
2022-10-31T23:19:36.360Z,98357.94
2022-10-31T23:22:00.300Z,98344.00
2022-10-31T23:24:05.428Z,98337.94
2022-10-31T23:26:22.807Z,98353.47
2022-10-31T23:28:27.623Z,98343.00
2022-10-31T23:30:32.394Z,98346.28
2022-10-31T23:32:39.186Z,98347.06
2022-10-31T23:34:48.536Z,98347.00
2022-10-31T23:36:53.382Z,98348.66
2022-10-31T23:38:58.185Z,98351.28
2022-10-31T23:41:03.017Z,98352.06
2022-10-31T23:43:07.794Z,98344.13
2022-10-31T23:45:12.839Z,98349.28
2022-10-31T23:47:18.454Z,98342.34
2022-10-31T23:49:23.587Z,98351.97
2022-10-31T23:51:31.065Z,98346.72
2022-10-31T23:55:40.547Z,98351.38
2022-10-31T23:57:45.760Z,98353.28
2022-10-31T23:59:50.315Z,98344.88
